sensor_id;sensor_type;location;lat;lon;timestamp;P1;durP1;ratioP1;P2;durP2;ratioP2
59300;SDS011;45073;52.740;6.784;2023-05-20T00:00:47;10.07;;;4.38;;
59300;SDS011;45073;52.740;6.784;2023-05-20T00:03:13;11.05;;;3.95;;
59300;SDS011;45073;52.740;6.784;2023-05-20T00:05:39;9.27;;;4.32;;
59300;SDS011;45073;52.740;6.784;2023-05-20T00:08:05;7.90;;;3.55;;
59300;SDS011;45073;52.740;6.784;2023-05-20T00:10:33;9.93;;;4.13;;
59300;SDS011;45073;52.740;6.784;2023-05-20T00:12:59;12.13;;;5.93;;
59300;SDS011;45073;52.740;6.784;2023-05-20T00:15:25;10.07;;;3.90;;
59300;SDS011;45073;52.740;6.784;2023-05-20T00:17:50;10.02;;;4.00;;
59300;SDS011;45073;52.740;6.784;2023-05-20T00:20:16;13.52;;;6.28;;
59300;SDS011;45073;52.740;6.784;2023-05-20T00:22:42;10.63;;;3.97;;
59300;SDS011;45073;52.740;6.784;2023-05-20T00:25:07;10.00;;;3.85;;
59300;SDS011;45073;52.740;6.784;2023-05-20T00:27:33;9.63;;;3.67;;
59300;SDS011;45073;52.740;6.784;2023-05-20T00:29:59;13.93;;;4.70;;
59300;SDS011;45073;52.740;6.784;2023-05-20T00:32:24;10.65;;;4.28;;
59300;SDS011;45073;52.740;6.784;2023-05-20T00:34:59;11.48;;;4.50;;
59300;SDS011;45073;52.740;6.784;2023-05-20T00:37:26;11.18;;;6.00;;
59300;SDS011;45073;52.740;6.784;2023-05-20T00:39:51;13.00;;;4.43;;
59300;SDS011;45073;52.740;6.784;2023-05-20T00:42:24;9.32;;;3.58;;
59300;SDS011;45073;52.740;6.784;2023-05-20T00:44:51;8.15;;;3.40;;
59300;SDS011;45073;52.740;6.784;2023-05-20T00:47:19;14.07;;;6.07;;
59300;SDS011;45073;52.740;6.784;2023-05-20T00:49:47;9.30;;;3.55;;
59300;SDS011;45073;52.740;6.784;2023-05-20T00:52:15;13.05;;;6.15;;
59300;SDS011;45073;52.740;6.784;2023-05-20T00:54:42;11.75;;;4.50;;
59300;SDS011;45073;52.740;6.784;2023-05-20T00:57:08;12.95;;;5.90;;
59300;SDS011;45073;52.740;6.784;2023-05-20T00:59:37;9.45;;;4.07;;
59300;SDS011;45073;52.740;6.784;2023-05-20T01:02:03;10.10;;;3.92;;
59300;SDS011;45073;52.740;6.784;2023-05-20T01:04:29;10.25;;;4.45;;
59300;SDS011;45073;52.740;6.784;2023-05-20T01:06:55;9.55;;;4.28;;
59300;SDS011;45073;52.740;6.784;2023-05-20T01:09:25;12.93;;;4.15;;
59300;SDS011;45073;52.740;6.784;2023-05-20T01:11:55;11.25;;;4.05;;
59300;SDS011;45073;52.740;6.784;2023-05-20T01:14:28;10.77;;;5.38;;
59300;SDS011;45073;52.740;6.784;2023-05-20T01:16:57;9.15;;;4.18;;
59300;SDS011;45073;52.740;6.784;2023-05-20T01:21:59;11.60;;;3.65;;
59300;SDS011;45073;52.740;6.784;2023-05-20T01:24:28;9.80;;;4.07;;
59300;SDS011;45073;52.740;6.784;2023-05-20T01:26:53;10.50;;;3.72;;
59300;SDS011;45073;52.740;6.784;2023-05-20T01:29:21;12.48;;;5.90;;
59300;SDS011;45073;52.740;6.784;2023-05-20T01:31:48;11.35;;;4.13;;
59300;SDS011;45073;52.740;6.784;2023-05-20T01:34:15;9.15;;;3.47;;
59300;SDS011;45073;52.740;6.784;2023-05-20T01:36:41;10.18;;;3.42;;
59300;SDS011;45073;52.740;6.784;2023-05-20T01:39:10;12.27;;;4.43;;
59300;SDS011;45073;52.740;6.784;2023-05-20T01:41:36;10.35;;;4.32;;
59300;SDS011;45073;52.740;6.784;2023-05-20T01:44:03;12.75;;;6.30;;
59300;SDS011;45073;52.740;6.784;2023-05-20T01:46:32;13.13;;;3.72;;
59300;SDS011;45073;52.740;6.784;2023-05-20T01:48:58;7.95;;;3.55;;
59300;SDS011;45073;52.740;6.784;2023-05-20T01:51:24;10.90;;;3.83;;
59300;SDS011;45073;52.740;6.784;2023-05-20T01:53:50;11.55;;;5.85;;
59300;SDS011;45073;52.740;6.784;2023-05-20T01:56:15;9.27;;;3.95;;
59300;SDS011;45073;52.740;6.784;2023-05-20T01:58:41;9.73;;;3.88;;
59300;SDS011;45073;52.740;6.784;2023-05-20T02:01:06;12.45;;;3.88;;
59300;SDS011;45073;52.740;6.784;2023-05-20T02:03:32;10.38;;;3.70;;
59300;SDS011;45073;52.740;6.784;2023-05-20T02:05:57;9.68;;;3.45;;
59300;SDS011;45073;52.740;6.784;2023-05-20T02:08:23;12.02;;;5.85;;
59300;SDS011;45073;52.740;6.784;2023-05-20T02:10:49;7.65;;;3.15;;
59300;SDS011;45073;52.740;6.784;2023-05-20T02:13:14;11.90;;;3.95;;
59300;SDS011;45073;52.740;6.784;2023-05-20T02:15:40;9.82;;;4.70;;
59300;SDS011;45073;52.740;6.784;2023-05-20T02:18:06;12.60;;;3.95;;
59300;SDS011;45073;52.740;6.784;2023-05-20T02:20:34;7.47;;;3.28;;
59300;SDS011;45073;52.740;6.784;2023-05-20T02:23:00;10.55;;;4.95;;
59300;SDS011;45073;52.740;6.784;2023-05-20T02:25:27;11.00;;;3.40;;
59300;SDS011;45073;52.740;6.784;2023-05-20T02:27:52;7.18;;;3.42;;
59300;SDS011;45073;52.740;6.784;2023-05-20T02:30:18;10.13;;;3.58;;
59300;SDS011;45073;52.740;6.784;2023-05-20T02:32:43;7.97;;;3.13;;
59300;SDS011;45073;52.740;6.784;2023-05-20T02:35:09;7.45;;;2.95;;
59300;SDS011;45073;52.740;6.784;2023-05-20T02:37:35;9.95;;;3.10;;
59300;SDS011;45073;52.740;6.784;2023-05-20T02:40:03;8.75;;;4.53;;
59300;SDS011;45073;52.740;6.784;2023-05-20T02:42:29;11.63;;;5.05;;
59300;SDS011;45073;52.740;6.784;2023-05-20T02:44:54;7.20;;;2.92;;
59300;SDS011;45073;52.740;6.784;2023-05-20T02:47:22;7.72;;;3.15;;
59300;SDS011;45073;52.740;6.784;2023-05-20T02:49:49;9.43;;;3.00;;
59300;SDS011;45073;52.740;6.784;2023-05-20T02:52:14;8.68;;;2.85;;
59300;SDS011;45073;52.740;6.784;2023-05-20T02:54:40;7.28;;;2.78;;
59300;SDS011;45073;52.740;6.784;2023-05-20T02:57:06;10.52;;;3.45;;
59300;SDS011;45073;52.740;6.784;2023-05-20T02:59:31;8.88;;;3.28;;
59300;SDS011;45073;52.740;6.784;2023-05-20T03:01:57;7.95;;;3.25;;
59300;SDS011;45073;52.740;6.784;2023-05-20T03:04:23;7.95;;;3.03;;
59300;SDS011;45073;52.740;6.784;2023-05-20T03:06:50;7.70;;;2.88;;
59300;SDS011;45073;52.740;6.784;2023-05-20T03:09:16;7.57;;;2.55;;
59300;SDS011;45073;52.740;6.784;2023-05-20T03:11:43;11.60;;;4.82;;
59300;SDS011;45073;52.740;6.784;2023-05-20T03:14:09;8.25;;;3.10;;
59300;SDS011;45073;52.740;6.784;2023-05-20T03:16:35;9.32;;;3.42;;
59300;SDS011;45073;52.740;6.784;2023-05-20T03:19:00;8.77;;;3.17;;
59300;SDS011;45073;52.740;6.784;2023-05-20T03:21:26;10.43;;;3.58;;
59300;SDS011;45073;52.740;6.784;2023-05-20T03:23:52;11.07;;;4.50;;
59300;SDS011;45073;52.740;6.784;2023-05-20T03:26:17;8.93;;;2.60;;
59300;SDS011;45073;52.740;6.784;2023-05-20T03:28:43;8.45;;;2.63;;
59300;SDS011;45073;52.740;6.784;2023-05-20T03:31:08;9.38;;;3.35;;
59300;SDS011;45073;52.740;6.784;2023-05-20T03:33:34;7.53;;;2.78;;
59300;SDS011;45073;52.740;6.784;2023-05-20T03:36:00;8.30;;;3.08;;
59300;SDS011;45073;52.740;6.784;2023-05-20T03:38:26;8.75;;;2.90;;
59300;SDS011;45073;52.740;6.784;2023-05-20T03:40:51;9.60;;;3.17;;
59300;SDS011;45073;52.740;6.784;2023-05-20T03:43:17;11.13;;;4.13;;
59300;SDS011;45073;52.740;6.784;2023-05-20T03:45:42;10.10;;;2.80;;
59300;SDS011;45073;52.740;6.784;2023-05-20T03:48:08;8.43;;;2.88;;
59300;SDS011;45073;52.740;6.784;2023-05-20T03:50:33;8.38;;;2.88;;
59300;SDS011;45073;52.740;6.784;2023-05-20T03:52:59;7.35;;;2.72;;
59300;SDS011;45073;52.740;6.784;2023-05-20T03:55:25;6.53;;;2.50;;
59300;SDS011;45073;52.740;6.784;2023-05-20T03:57:51;7.93;;;2.90;;
59300;SDS011;45073;52.740;6.784;2023-05-20T04:00:17;7.43;;;2.60;;
59300;SDS011;45073;52.740;6.784;2023-05-20T04:02:43;8.98;;;3.05;;
59300;SDS011;45073;52.740;6.784;2023-05-20T04:05:08;6.82;;;2.45;;
59300;SDS011;45073;52.740;6.784;2023-05-20T04:07:34;6.43;;;2.30;;
59300;SDS011;45073;52.740;6.784;2023-05-20T04:10:00;9.95;;;2.90;;
59300;SDS011;45073;52.740;6.784;2023-05-20T04:12:27;8.82;;;3.92;;
59300;SDS011;45073;52.740;6.784;2023-05-20T04:14:58;9.02;;;3.20;;
59300;SDS011;45073;52.740;6.784;2023-05-20T04:17:25;8.88;;;2.65;;
59300;SDS011;45073;52.740;6.784;2023-05-20T04:19:55;6.95;;;2.28;;
59300;SDS011;45073;52.740;6.784;2023-05-20T04:22:24;8.82;;;2.50;;
59300;SDS011;45073;52.740;6.784;2023-05-20T04:24:50;10.27;;;2.55;;
59300;SDS011;45073;52.740;6.784;2023-05-20T04:27:16;6.68;;;2.60;;
59300;SDS011;45073;52.740;6.784;2023-05-20T04:29:42;10.73;;;2.95;;
59300;SDS011;45073;52.740;6.784;2023-05-20T04:32:12;9.82;;;2.85;;
59300;SDS011;45073;52.740;6.784;2023-05-20T04:34:38;7.60;;;2.63;;
59300;SDS011;45073;52.740;6.784;2023-05-20T04:37:04;6.50;;;2.30;;
59300;SDS011;45073;52.740;6.784;2023-05-20T04:39:31;6.47;;;2.20;;
59300;SDS011;45073;52.740;6.784;2023-05-20T04:41:57;8.40;;;2.45;;
59300;SDS011;45073;52.740;6.784;2023-05-20T04:44:23;7.18;;;2.10;;
59300;SDS011;45073;52.740;6.784;2023-05-20T04:46:50;8.07;;;3.30;;
59300;SDS011;45073;52.740;6.784;2023-05-20T04:49:16;7.30;;;2.40;;
59300;SDS011;45073;52.740;6.784;2023-05-20T04:51:42;5.75;;;2.03;;
59300;SDS011;45073;52.740;6.784;2023-05-20T04:54:08;8.30;;;2.08;;
59300;SDS011;45073;52.740;6.784;2023-05-20T04:56:34;7.32;;;2.40;;
59300;SDS011;45073;52.740;6.784;2023-05-20T04:59:00;6.97;;;2.10;;
59300;SDS011;45073;52.740;6.784;2023-05-20T05:01:25;5.53;;;2.15;;
59300;SDS011;45073;52.740;6.784;2023-05-20T05:03:51;10.15;;;3.65;;
59300;SDS011;45073;52.740;6.784;2023-05-20T05:06:17;7.55;;;2.60;;
59300;SDS011;45073;52.740;6.784;2023-05-20T05:08:42;6.93;;;1.95;;
59300;SDS011;45073;52.740;6.784;2023-05-20T05:11:08;7.65;;;2.85;;
59300;SDS011;45073;52.740;6.784;2023-05-20T05:13:34;7.97;;;2.20;;
59300;SDS011;45073;52.740;6.784;2023-05-20T05:15:59;7.22;;;2.20;;
59300;SDS011;45073;52.740;6.784;2023-05-20T05:18:26;8.57;;;2.78;;
59300;SDS011;45073;52.740;6.784;2023-05-20T05:20:59;7.05;;;2.20;;
59300;SDS011;45073;52.740;6.784;2023-05-20T05:23:25;6.18;;;2.03;;
59300;SDS011;45073;52.740;6.784;2023-05-20T05:25:51;6.32;;;2.05;;
59300;SDS011;45073;52.740;6.784;2023-05-20T05:28:17;7.47;;;1.88;;
59300;SDS011;45073;52.740;6.784;2023-05-20T05:30:43;4.70;;;1.75;;
59300;SDS011;45073;52.740;6.784;2023-05-20T05:33:08;9.23;;;2.10;;
59300;SDS011;45073;52.740;6.784;2023-05-20T05:35:34;6.05;;;2.03;;
59300;SDS011;45073;52.740;6.784;2023-05-20T05:37:59;7.70;;;2.85;;
59300;SDS011;45073;52.740;6.784;2023-05-20T05:40:25;8.38;;;3.03;;
59300;SDS011;45073;52.740;6.784;2023-05-20T05:42:51;7.25;;;2.60;;
59300;SDS011;45073;52.740;6.784;2023-05-20T05:45:17;6.63;;;1.70;;
59300;SDS011;45073;52.740;6.784;2023-05-20T05:47:42;6.88;;;2.03;;
59300;SDS011;45073;52.740;6.784;2023-05-20T05:50:08;7.75;;;2.15;;
59300;SDS011;45073;52.740;6.784;2023-05-20T05:52:34;5.55;;;1.67;;
59300;SDS011;45073;52.740;6.784;2023-05-20T05:55:00;5.78;;;1.90;;
59300;SDS011;45073;52.740;6.784;2023-05-20T05:57:26;6.55;;;2.53;;
59300;SDS011;45073;52.740;6.784;2023-05-20T05:59:52;5.45;;;1.83;;
59300;SDS011;45073;52.740;6.784;2023-05-20T06:02:17;6.13;;;1.83;;
59300;SDS011;45073;52.740;6.784;2023-05-20T06:04:43;5.40;;;1.92;;
59300;SDS011;45073;52.740;6.784;2023-05-20T06:07:09;4.63;;;1.58;;
59300;SDS011;45073;52.740;6.784;2023-05-20T06:09:34;6.75;;;2.50;;
59300;SDS011;45073;52.740;6.784;2023-05-20T06:12:00;6.53;;;1.83;;
59300;SDS011;45073;52.740;6.784;2023-05-20T06:14:26;8.00;;;1.75;;
59300;SDS011;45073;52.740;6.784;2023-05-20T06:16:52;7.50;;;2.00;;
59300;SDS011;45073;52.740;6.784;2023-05-20T06:19:17;5.28;;;1.90;;
59300;SDS011;45073;52.740;6.784;2023-05-20T06:21:43;6.00;;;2.20;;
59300;SDS011;45073;52.740;6.784;2023-05-20T06:24:08;5.07;;;1.77;;
59300;SDS011;45073;52.740;6.784;2023-05-20T06:26:34;5.25;;;1.85;;
59300;SDS011;45073;52.740;6.784;2023-05-20T06:29:00;5.60;;;2.20;;
59300;SDS011;45073;52.740;6.784;2023-05-20T06:31:26;5.45;;;2.03;;
59300;SDS011;45073;52.740;6.784;2023-05-20T06:33:51;4.38;;;1.50;;
59300;SDS011;45073;52.740;6.784;2023-05-20T06:36:17;7.55;;;2.75;;
59300;SDS011;45073;52.740;6.784;2023-05-20T06:38:42;6.10;;;1.70;;
59300;SDS011;45073;52.740;6.784;2023-05-20T06:41:08;6.20;;;2.30;;
59300;SDS011;45073;52.740;6.784;2023-05-20T06:43:33;7.22;;;2.05;;
59300;SDS011;45073;52.740;6.784;2023-05-20T06:45:59;7.55;;;2.40;;
59300;SDS011;45073;52.740;6.784;2023-05-20T06:48:24;6.65;;;1.98;;
59300;SDS011;45073;52.740;6.784;2023-05-20T06:50:50;6.30;;;2.67;;
59300;SDS011;45073;52.740;6.784;2023-05-20T06:53:16;9.02;;;2.40;;
59300;SDS011;45073;52.740;6.784;2023-05-20T06:55:41;6.70;;;2.60;;
59300;SDS011;45073;52.740;6.784;2023-05-20T06:58:07;8.73;;;1.90;;
59300;SDS011;45073;52.740;6.784;2023-05-20T07:00:32;4.88;;;1.77;;
59300;SDS011;45073;52.740;6.784;2023-05-20T07:02:58;7.45;;;2.80;;
59300;SDS011;45073;52.740;6.784;2023-05-20T07:05:23;6.25;;;2.35;;
59300;SDS011;45073;52.740;6.784;2023-05-20T07:07:49;8.05;;;2.00;;
59300;SDS011;45073;52.740;6.784;2023-05-20T07:10:15;7.53;;;2.67;;
59300;SDS011;45073;52.740;6.784;2023-05-20T07:12:41;8.07;;;2.45;;
59300;SDS011;45073;52.740;6.784;2023-05-20T07:15:07;6.03;;;2.03;;
59300;SDS011;45073;52.740;6.784;2023-05-20T07:17:33;6.82;;;2.20;;
59300;SDS011;45073;52.740;6.784;2023-05-20T07:19:58;7.18;;;2.90;;
59300;SDS011;45073;52.740;6.784;2023-05-20T07:22:24;8.65;;;2.58;;
59300;SDS011;45073;52.740;6.784;2023-05-20T07:24:49;7.53;;;2.83;;
59300;SDS011;45073;52.740;6.784;2023-05-20T07:27:15;7.00;;;2.70;;
59300;SDS011;45073;52.740;6.784;2023-05-20T07:29:41;6.15;;;2.58;;
59300;SDS011;45073;52.740;6.784;2023-05-20T07:32:07;5.88;;;2.13;;
59300;SDS011;45073;52.740;6.784;2023-05-20T07:34:33;6.22;;;2.15;;
59300;SDS011;45073;52.740;6.784;2023-05-20T07:36:58;15.93;;;3.00;;
59300;SDS011;45073;52.740;6.784;2023-05-20T07:39:25;7.22;;;3.00;;
59300;SDS011;45073;52.740;6.784;2023-05-20T07:41:51;6.55;;;2.60;;
59300;SDS011;45073;52.740;6.784;2023-05-20T07:44:17;6.10;;;2.50;;
59300;SDS011;45073;52.740;6.784;2023-05-20T07:46:43;7.13;;;2.70;;
59300;SDS011;45073;52.740;6.784;2023-05-20T07:49:09;8.23;;;3.00;;
59300;SDS011;45073;52.740;6.784;2023-05-20T07:51:35;6.88;;;2.90;;
59300;SDS011;45073;52.740;6.784;2023-05-20T07:54:01;7.10;;;2.90;;
59300;SDS011;45073;52.740;6.784;2023-05-20T07:56:26;8.32;;;3.10;;
59300;SDS011;45073;52.740;6.784;2023-05-20T07:58:53;7.78;;;3.03;;
59300;SDS011;45073;52.740;6.784;2023-05-20T08:01:22;7.50;;;3.03;;
59300;SDS011;45073;52.740;6.784;2023-05-20T08:03:52;8.93;;;2.45;;
59300;SDS011;45073;52.740;6.784;2023-05-20T08:06:21;7.78;;;2.67;;
59300;SDS011;45073;52.740;6.784;2023-05-20T08:08:48;8.27;;;3.13;;
59300;SDS011;45073;52.740;6.784;2023-05-20T08:11:14;8.32;;;3.13;;
59300;SDS011;45073;52.740;6.784;2023-05-20T08:13:39;7.28;;;2.70;;
59300;SDS011;45073;52.740;6.784;2023-05-20T08:16:05;8.10;;;2.90;;
59300;SDS011;45073;52.740;6.784;2023-05-20T08:18:31;7.38;;;2.85;;
59300;SDS011;45073;52.740;6.784;2023-05-20T08:20:58;7.63;;;2.90;;
59300;SDS011;45073;52.740;6.784;2023-05-20T08:23:24;10.05;;;3.13;;
59300;SDS011;45073;52.740;6.784;2023-05-20T08:25:50;8.90;;;2.78;;
59300;SDS011;45073;52.740;6.784;2023-05-20T08:28:16;7.90;;;2.72;;
59300;SDS011;45073;52.740;6.784;2023-05-20T08:30:41;8.27;;;2.72;;
59300;SDS011;45073;52.740;6.784;2023-05-20T08:33:07;7.28;;;2.55;;
59300;SDS011;45073;52.740;6.784;2023-05-20T08:35:33;7.05;;;2.95;;
59300;SDS011;45073;52.740;6.784;2023-05-20T08:37:59;6.88;;;2.42;;
59300;SDS011;45073;52.740;6.784;2023-05-20T08:40:26;7.15;;;2.83;;
59300;SDS011;45073;52.740;6.784;2023-05-20T08:42:51;6.90;;;2.70;;
59300;SDS011;45073;52.740;6.784;2023-05-20T08:45:18;6.10;;;2.58;;
59300;SDS011;45073;52.740;6.784;2023-05-20T08:47:45;6.32;;;2.70;;
59300;SDS011;45073;52.740;6.784;2023-05-20T08:50:12;6.75;;;2.88;;
59300;SDS011;45073;52.740;6.784;2023-05-20T08:52:42;7.10;;;2.85;;
59300;SDS011;45073;52.740;6.784;2023-05-20T08:55:13;7.65;;;2.60;;
59300;SDS011;45073;52.740;6.784;2023-05-20T08:57:41;9.00;;;2.72;;
59300;SDS011;45073;52.740;6.784;2023-05-20T09:00:10;9.90;;;2.80;;
59300;SDS011;45073;52.740;6.784;2023-05-20T09:02:40;6.97;;;2.70;;
59300;SDS011;45073;52.740;6.784;2023-05-20T09:05:06;19.77;;;9.45;;
59300;SDS011;45073;52.740;6.784;2023-05-20T09:07:34;6.32;;;2.70;;
59300;SDS011;45073;52.740;6.784;2023-05-20T09:10:00;5.95;;;2.17;;
59300;SDS011;45073;52.740;6.784;2023-05-20T09:12:26;11.55;;;4.95;;
59300;SDS011;45073;52.740;6.784;2023-05-20T09:14:52;13.10;;;5.22;;
59300;SDS011;45073;52.740;6.784;2023-05-20T09:17:17;10.18;;;3.90;;
59300;SDS011;45073;52.740;6.784;2023-05-20T09:19:47;8.18;;;2.75;;
59300;SDS011;45073;52.740;6.784;2023-05-20T09:22:14;6.68;;;2.30;;
59300;SDS011;45073;52.740;6.784;2023-05-20T09:24:39;8.90;;;2.75;;
59300;SDS011;45073;52.740;6.784;2023-05-20T09:27:05;6.80;;;2.30;;
59300;SDS011;45073;52.740;6.784;2023-05-20T09:29:32;9.82;;;2.75;;
59300;SDS011;45073;52.740;6.784;2023-05-20T09:32:00;7.40;;;2.50;;
59300;SDS011;45073;52.740;6.784;2023-05-20T09:34:26;7.05;;;2.40;;
59300;SDS011;45073;52.740;6.784;2023-05-20T09:36:53;8.55;;;2.80;;
59300;SDS011;45073;52.740;6.784;2023-05-20T09:39:22;6.93;;;2.47;;
59300;SDS011;45073;52.740;6.784;2023-05-20T09:41:55;7.97;;;2.85;;
59300;SDS011;45073;52.740;6.784;2023-05-20T09:44:26;7.70;;;2.50;;
59300;SDS011;45073;52.740;6.784;2023-05-20T09:46:53;6.80;;;2.53;;
59300;SDS011;45073;52.740;6.784;2023-05-20T09:49:20;7.55;;;2.72;;
59300;SDS011;45073;52.740;6.784;2023-05-20T09:51:47;8.05;;;2.38;;
59300;SDS011;45073;52.740;6.784;2023-05-20T09:54:16;6.18;;;2.30;;
59300;SDS011;45073;52.740;6.784;2023-05-20T09:56:43;6.93;;;2.78;;
59300;SDS011;45073;52.740;6.784;2023-05-20T09:59:10;7.65;;;2.92;;
59300;SDS011;45073;52.740;6.784;2023-05-20T10:01:39;8.30;;;2.58;;
59300;SDS011;45073;52.740;6.784;2023-05-20T10:04:05;7.07;;;2.63;;
59300;SDS011;45073;52.740;6.784;2023-05-20T10:09:39;6.72;;;2.50;;
59300;SDS011;45073;52.740;6.784;2023-05-20T10:12:17;8.13;;;2.30;;
59300;SDS011;45073;52.740;6.784;2023-05-20T10:14:49;8.23;;;2.55;;
59300;SDS011;45073;52.740;6.784;2023-05-20T10:17:38;7.88;;;2.40;;
59300;SDS011;45073;52.740;6.784;2023-05-20T10:20:29;6.90;;;2.53;;
59300;SDS011;45073;52.740;6.784;2023-05-20T10:22:55;6.82;;;2.50;;
59300;SDS011;45073;52.740;6.784;2023-05-20T10:25:25;6.80;;;2.90;;
59300;SDS011;45073;52.740;6.784;2023-05-20T10:28:02;5.15;;;1.85;;
59300;SDS011;45073;52.740;6.784;2023-05-20T10:30:31;7.28;;;2.45;;
59300;SDS011;45073;52.740;6.784;2023-05-20T10:33:01;6.97;;;2.40;;
59300;SDS011;45073;52.740;6.784;2023-05-20T10:35:29;5.90;;;2.00;;
59300;SDS011;45073;52.740;6.784;2023-05-20T10:38:05;6.18;;;2.10;;
59300;SDS011;45073;52.740;6.784;2023-05-20T10:40:35;9.90;;;2.80;;
59300;SDS011;45073;52.740;6.784;2023-05-20T10:43:11;5.40;;;2.15;;
59300;SDS011;45073;52.740;6.784;2023-05-20T10:45:48;6.82;;;2.10;;
59300;SDS011;45073;52.740;6.784;2023-05-20T10:48:27;7.43;;;2.35;;
59300;SDS011;45073;52.740;6.784;2023-05-20T10:50:56;5.70;;;2.00;;
59300;SDS011;45073;52.740;6.784;2023-05-20T10:53:24;6.25;;;2.03;;
59300;SDS011;45073;52.740;6.784;2023-05-20T10:55:52;6.07;;;1.98;;
59300;SDS011;45073;52.740;6.784;2023-05-20T10:58:21;7.78;;;1.95;;
59300;SDS011;45073;52.740;6.784;2023-05-20T11:00:48;8.85;;;2.20;;
59300;SDS011;45073;52.740;6.784;2023-05-20T11:03:17;8.90;;;2.10;;
59300;SDS011;45073;52.740;6.784;2023-05-20T11:05:45;5.95;;;1.80;;
59300;SDS011;45073;52.740;6.784;2023-05-20T11:08:12;5.35;;;1.90;;
59300;SDS011;45073;52.740;6.784;2023-05-20T11:10:38;5.10;;;2.03;;
59300;SDS011;45073;52.740;6.784;2023-05-20T11:13:05;7.55;;;2.10;;
59300;SDS011;45073;52.740;6.784;2023-05-20T11:15:33;7.13;;;2.40;;
59300;SDS011;45073;52.740;6.784;2023-05-20T11:18:00;6.32;;;2.20;;
59300;SDS011;45073;52.740;6.784;2023-05-20T11:20:28;8.88;;;2.20;;
59300;SDS011;45073;52.740;6.784;2023-05-20T11:22:55;6.10;;;1.77;;
59300;SDS011;45073;52.740;6.784;2023-05-20T11:25:20;5.10;;;1.92;;
59300;SDS011;45073;52.740;6.784;2023-05-20T11:27:49;5.53;;;2.13;;
59300;SDS011;45073;52.740;6.784;2023-05-20T11:30:16;7.57;;;2.10;;
59300;SDS011;45073;52.740;6.784;2023-05-20T11:32:58;6.15;;;2.25;;
59300;SDS011;45073;52.740;6.784;2023-05-20T11:35:25;7.65;;;2.00;;
59300;SDS011;45073;52.740;6.784;2023-05-20T11:38:02;7.13;;;1.95;;
59300;SDS011;45073;52.740;6.784;2023-05-20T11:40:29;7.30;;;1.80;;
59300;SDS011;45073;52.740;6.784;2023-05-20T11:42:57;7.20;;;2.00;;
59300;SDS011;45073;52.740;6.784;2023-05-20T11:45:26;6.68;;;2.10;;
59300;SDS011;45073;52.740;6.784;2023-05-20T11:47:59;7.70;;;2.10;;
59300;SDS011;45073;52.740;6.784;2023-05-20T11:50:33;8.98;;;2.08;;
59300;SDS011;45073;52.740;6.784;2023-05-20T11:53:04;6.45;;;2.05;;
59300;SDS011;45073;52.740;6.784;2023-05-20T11:55:31;10.68;;;2.50;;
59300;SDS011;45073;52.740;6.784;2023-05-20T11:57:59;8.45;;;2.33;;
59300;SDS011;45073;52.740;6.784;2023-05-20T12:00:26;6.65;;;1.90;;
59300;SDS011;45073;52.740;6.784;2023-05-20T12:02:52;6.53;;;1.80;;
59300;SDS011;45073;52.740;6.784;2023-05-20T12:05:18;6.18;;;2.15;;
59300;SDS011;45073;52.740;6.784;2023-05-20T12:07:44;7.03;;;1.85;;
59300;SDS011;45073;52.740;6.784;2023-05-20T12:10:10;7.82;;;2.00;;
59300;SDS011;45073;52.740;6.784;2023-05-20T12:12:36;6.25;;;1.90;;
59300;SDS011;45073;52.740;6.784;2023-05-20T12:15:05;5.90;;;1.73;;
59300;SDS011;45073;52.740;6.784;2023-05-20T12:17:43;4.82;;;1.75;;
59300;SDS011;45073;52.740;6.784;2023-05-20T12:20:11;10.70;;;2.17;;
59300;SDS011;45073;52.740;6.784;2023-05-20T12:22:38;7.85;;;2.13;;
59300;SDS011;45073;52.740;6.784;2023-05-20T12:25:04;9.15;;;1.90;;
59300;SDS011;45073;52.740;6.784;2023-05-20T12:27:30;6.97;;;1.88;;
59300;SDS011;45073;52.740;6.784;2023-05-20T12:29:57;7.07;;;1.90;;
59300;SDS011;45073;52.740;6.784;2023-05-20T12:32:23;6.40;;;1.90;;
59300;SDS011;45073;52.740;6.784;2023-05-20T12:34:49;7.03;;;1.80;;
59300;SDS011;45073;52.740;6.784;2023-05-20T12:37:15;5.60;;;1.70;;
59300;SDS011;45073;52.740;6.784;2023-05-20T12:39:41;4.35;;;1.52;;
59300;SDS011;45073;52.740;6.784;2023-05-20T12:42:06;5.63;;;1.75;;
59300;SDS011;45073;52.740;6.784;2023-05-20T12:44:32;8.40;;;1.95;;
59300;SDS011;45073;52.740;6.784;2023-05-20T12:46:57;5.53;;;1.83;;
59300;SDS011;45073;52.740;6.784;2023-05-20T12:49:23;6.47;;;1.95;;
59300;SDS011;45073;52.740;6.784;2023-05-20T12:51:48;7.20;;;2.00;;
59300;SDS011;45073;52.740;6.784;2023-05-20T12:54:15;6.50;;;2.08;;
59300;SDS011;45073;52.740;6.784;2023-05-20T12:56:41;6.05;;;1.80;;
59300;SDS011;45073;52.740;6.784;2023-05-20T12:59:11;6.22;;;1.98;;
59300;SDS011;45073;52.740;6.784;2023-05-20T13:01:37;6.50;;;2.10;;
59300;SDS011;45073;52.740;6.784;2023-05-20T13:04:04;7.07;;;2.00;;
59300;SDS011;45073;52.740;6.784;2023-05-20T13:06:29;7.30;;;2.03;;
59300;SDS011;45073;52.740;6.784;2023-05-20T13:08:55;7.70;;;2.20;;
59300;SDS011;45073;52.740;6.784;2023-05-20T13:11:21;6.93;;;2.00;;
59300;SDS011;45073;52.740;6.784;2023-05-20T13:13:47;7.43;;;1.90;;
59300;SDS011;45073;52.740;6.784;2023-05-20T13:16:13;6.55;;;1.77;;
59300;SDS011;45073;52.740;6.784;2023-05-20T13:18:40;6.50;;;2.22;;
59300;SDS011;45073;52.740;6.784;2023-05-20T13:21:06;5.57;;;1.92;;
59300;SDS011;45073;52.740;6.784;2023-05-20T13:23:31;7.90;;;2.10;;
59300;SDS011;45073;52.740;6.784;2023-05-20T13:25:57;7.57;;;2.15;;
59300;SDS011;45073;52.740;6.784;2023-05-20T13:28:23;5.80;;;1.83;;
59300;SDS011;45073;52.740;6.784;2023-05-20T13:30:49;7.18;;;1.95;;
59300;SDS011;45073;52.740;6.784;2023-05-20T13:33:15;6.78;;;2.08;;
59300;SDS011;45073;52.740;6.784;2023-05-20T13:35:40;5.65;;;1.80;;
59300;SDS011;45073;52.740;6.784;2023-05-20T13:38:06;5.60;;;1.90;;
59300;SDS011;45073;52.740;6.784;2023-05-20T13:40:31;7.07;;;1.83;;
59300;SDS011;45073;52.740;6.784;2023-05-20T13:42:58;6.60;;;1.80;;
59300;SDS011;45073;52.740;6.784;2023-05-20T13:45:23;6.47;;;1.85;;
59300;SDS011;45073;52.740;6.784;2023-05-20T13:47:49;7.20;;;2.30;;
59300;SDS011;45073;52.740;6.784;2023-05-20T13:50:15;5.70;;;2.20;;
59300;SDS011;45073;52.740;6.784;2023-05-20T13:52:41;5.57;;;1.60;;
59300;SDS011;45073;52.740;6.784;2023-05-20T13:55:06;5.15;;;1.70;;
59300;SDS011;45073;52.740;6.784;2023-05-20T13:57:32;6.95;;;1.95;;
59300;SDS011;45073;52.740;6.784;2023-05-20T13:59:58;6.32;;;2.00;;
59300;SDS011;45073;52.740;6.784;2023-05-20T14:02:23;6.25;;;1.70;;
59300;SDS011;45073;52.740;6.784;2023-05-20T14:04:49;7.10;;;1.85;;
59300;SDS011;45073;52.740;6.784;2023-05-20T14:07:14;6.47;;;1.92;;
59300;SDS011;45073;52.740;6.784;2023-05-20T14:09:40;8.82;;;1.90;;
59300;SDS011;45073;52.740;6.784;2023-05-20T14:12:06;6.82;;;2.25;;
59300;SDS011;45073;52.740;6.784;2023-05-20T14:14:31;7.93;;;2.05;;
59300;SDS011;45073;52.740;6.784;2023-05-20T14:16:57;5.90;;;1.98;;
59300;SDS011;45073;52.740;6.784;2023-05-20T14:19:23;6.72;;;1.90;;
59300;SDS011;45073;52.740;6.784;2023-05-20T14:21:50;7.07;;;1.98;;
59300;SDS011;45073;52.740;6.784;2023-05-20T14:24:15;5.85;;;1.92;;
59300;SDS011;45073;52.740;6.784;2023-05-20T14:26:41;6.53;;;2.00;;
59300;SDS011;45073;52.740;6.784;2023-05-20T14:29:06;7.32;;;1.90;;
59300;SDS011;45073;52.740;6.784;2023-05-20T14:31:32;8.95;;;2.20;;
59300;SDS011;45073;52.740;6.784;2023-05-20T14:33:58;5.70;;;1.90;;
59300;SDS011;45073;52.740;6.784;2023-05-20T14:36:23;5.90;;;1.75;;
59300;SDS011;45073;52.740;6.784;2023-05-20T14:38:49;6.40;;;1.75;;
59300;SDS011;45073;52.740;6.784;2023-05-20T14:41:15;9.15;;;2.20;;
59300;SDS011;45073;52.740;6.784;2023-05-20T14:43:41;5.63;;;1.83;;
59300;SDS011;45073;52.740;6.784;2023-05-20T14:46:06;8.30;;;2.50;;
59300;SDS011;45073;52.740;6.784;2023-05-20T14:48:32;6.50;;;1.90;;